createdAt,value
2023-01-20T00:02:41.266Z,74.83
2023-01-20T00:05:26.465Z,80.93
2023-01-20T00:08:11.278Z,76.50
2023-01-20T00:10:57.059Z,81.13
2023-01-20T00:13:42.300Z,73.03
2023-01-20T00:16:28.165Z,76.23
2023-01-20T00:19:14.357Z,79.37
2023-01-20T00:21:59.751Z,73.33
2023-01-20T00:24:44.848Z,73.43
2023-01-20T00:27:29.699Z,78.90
2023-01-20T00:30:14.650Z,76.73
2023-01-20T00:32:59.436Z,75.93
2023-01-20T00:35:44.420Z,76.13
2023-01-20T00:38:29.615Z,73.13
2023-01-20T00:41:15.552Z,73.10
2023-01-20T00:44:00.421Z,71.83
2023-01-20T00:46:45.456Z,80.97
2023-01-20T00:49:30.805Z,75.40
2023-01-20T00:52:16.087Z,82.07
2023-01-20T00:55:00.958Z,76.33
2023-01-20T00:57:46.249Z,78.90
2023-01-20T01:00:31.567Z,86.30
2023-01-20T01:03:18.495Z,83.83
2023-01-20T01:06:12.049Z,85.00
2023-01-20T01:08:57.598Z,79.60
2023-01-20T01:11:43.034Z,80.00
2023-01-20T01:14:30.794Z,86.83
2023-01-20T01:17:15.714Z,85.90
2023-01-20T01:20:00.612Z,84.53
2023-01-20T01:22:45.409Z,82.77
2023-01-20T01:25:30.519Z,80.80
2023-01-20T01:28:15.737Z,79.83
2023-01-20T01:31:02.732Z,79.57
2023-01-20T01:33:48.656Z,78.60
2023-01-20T01:36:33.460Z,77.50
2023-01-20T01:39:18.614Z,81.90
2023-01-20T01:42:08.763Z,87.70
2023-01-20T01:45:12.402Z,86.20
2023-01-20T01:48:18.779Z,83.27
2023-01-20T01:51:30.175Z,81.20
2023-01-20T01:54:18.378Z,82.07
2023-01-20T01:57:07.328Z,82.13
2023-01-20T01:59:52.682Z,75.80
2023-01-20T02:02:38.273Z,84.67
2023-01-20T02:05:25.483Z,82.17
2023-01-20T02:08:11.192Z,88.53
2023-01-20T02:10:56.212Z,95.70
2023-01-20T02:13:41.577Z,93.17
2023-01-20T02:16:32.138Z,93.10
2023-01-20T02:19:49.833Z,90.50
2023-01-20T02:23:13.247Z,97.73
2023-01-20T02:26:06.987Z,95.00
2023-01-20T02:29:22.937Z,99.63
2023-01-20T02:32:23.456Z,90.93
2023-01-20T02:35:20.073Z,90.20
2023-01-20T02:38:14.685Z,94.23
2023-01-20T02:41:06.148Z,95.37
2023-01-20T02:44:00.381Z,89.57
2023-01-20T02:47:12.271Z,97.10
2023-01-20T02:50:21.341Z,98.63
2023-01-20T02:53:08.454Z,84.03
2023-01-20T02:55:54.346Z,90.40
2023-01-20T02:58:48.845Z,98.63
2023-01-20T03:01:46.290Z,92.90
2023-01-20T03:04:40.570Z,85.47
2023-01-20T03:07:29.432Z,98.03
2023-01-20T03:10:19.249Z,83.87
2023-01-20T03:13:16.630Z,84.63
2023-01-20T03:16:10.010Z,79.23
2023-01-20T03:18:55.388Z,76.90
2023-01-20T03:21:40.566Z,73.67
2023-01-20T03:24:29.318Z,74.00
2023-01-20T03:27:14.263Z,75.07
2023-01-20T03:29:59.368Z,85.67
2023-01-20T03:32:48.346Z,86.37
2023-01-20T03:35:34.144Z,94.73
2023-01-20T03:38:19.574Z,91.90
2023-01-20T03:41:13.789Z,85.77
2023-01-20T03:44:31.179Z,82.40
2023-01-20T03:47:31.254Z,82.50
2023-01-20T03:50:16.044Z,90.07
2023-01-20T03:53:36.269Z,82.90
2023-01-20T03:56:36.564Z,81.93
2023-01-20T03:59:23.422Z,80.13
2023-01-20T04:02:10.348Z,81.57
2023-01-20T04:04:56.814Z,84.77
2023-01-20T04:07:45.132Z,80.80
2023-01-20T04:10:32.583Z,82.60
2023-01-20T04:13:17.638Z,84.30
2023-01-20T04:16:09.059Z,80.83
2023-01-20T04:18:54.554Z,77.10
2023-01-20T04:21:45.208Z,79.67
2023-01-20T04:24:38.054Z,81.50
2023-01-20T04:27:23.389Z,76.87
2023-01-20T04:30:09.835Z,79.93
2023-01-20T04:32:55.018Z,80.20
2023-01-20T04:35:39.979Z,82.73
2023-01-20T04:38:24.977Z,79.40
2023-01-20T04:41:11.537Z,78.43
2023-01-20T04:43:56.693Z,77.50
2023-01-20T04:46:41.565Z,74.43
2023-01-20T04:49:27.017Z,78.23
2023-01-20T04:52:11.861Z,75.83
2023-01-20T04:54:56.731Z,75.30
2023-01-20T04:57:42.177Z,71.83
2023-01-20T05:00:27.604Z,72.37
2023-01-20T05:03:12.766Z,76.57
2023-01-20T05:05:57.581Z,70.20
2023-01-20T05:08:42.872Z,73.07
2023-01-20T05:11:28.390Z,73.20
2023-01-20T05:14:13.893Z,71.27
2023-01-20T05:16:59.054Z,69.40
2023-01-20T05:19:43.859Z,70.70
2023-01-20T05:22:29.311Z,71.20
2023-01-20T05:25:14.770Z,66.17
2023-01-20T05:27:59.953Z,69.23
2023-01-20T05:30:44.904Z,67.33
2023-01-20T05:33:30.257Z,65.97
2023-01-20T05:36:15.730Z,70.10
2023-01-20T05:39:00.591Z,74.03
2023-01-20T05:41:46.444Z,66.27
2023-01-20T05:44:31.576Z,68.03
2023-01-20T05:47:16.764Z,69.20
2023-01-20T05:50:02.068Z,76.17
2023-01-20T05:52:49.313Z,77.90
2023-01-20T05:55:34.328Z,72.90
2023-01-20T05:58:19.035Z,75.57
2023-01-20T06:01:09.980Z,71.83
2023-01-20T06:03:55.315Z,80.07
2023-01-20T06:06:40.627Z,77.87
2023-01-20T06:09:25.994Z,78.20
2023-01-20T06:12:11.064Z,74.23
2023-01-20T06:14:55.942Z,76.67
2023-01-20T06:17:41.397Z,75.23
2023-01-20T06:20:26.866Z,75.47
2023-01-20T06:23:11.823Z,74.40
2023-01-20T06:26:10.538Z,78.63
2023-01-20T06:28:59.520Z,73.30
2023-01-20T06:31:44.650Z,76.23
2023-01-20T06:34:29.895Z,76.90
2023-01-20T06:37:14.823Z,78.87
2023-01-20T06:40:00.159Z,78.87
2023-01-20T06:42:44.978Z,72.70
2023-01-20T06:45:30.606Z,72.17
2023-01-20T06:48:15.474Z,72.70
2023-01-20T06:51:04.371Z,73.53
2023-01-20T06:53:49.677Z,73.30
2023-01-20T06:56:34.700Z,72.00
2023-01-20T06:59:19.872Z,71.07
2023-01-20T07:02:06.113Z,70.53
2023-01-20T07:04:52.311Z,75.47
2023-01-20T07:07:37.331Z,87.30
2023-01-20T07:10:22.221Z,73.37
2023-01-20T07:13:07.159Z,76.43
2023-01-20T07:15:53.140Z,74.13
2023-01-20T07:18:38.957Z,72.17
2023-01-20T07:21:26.424Z,73.73
2023-01-20T07:24:11.755Z,72.43
2023-01-20T07:26:56.924Z,75.20
2023-01-20T07:29:42.025Z,83.63
2023-01-20T07:32:30.526Z,74.93
2023-01-20T07:35:16.453Z,74.13
2023-01-20T07:38:01.610Z,70.50
2023-01-20T07:40:47.088Z,71.17
2023-01-20T07:43:32.945Z,71.27
2023-01-20T07:46:19.380Z,73.87
2023-01-20T07:49:04.702Z,71.77
2023-01-20T07:51:50.264Z,76.97
2023-01-20T07:54:35.487Z,75.63
2023-01-20T07:57:20.435Z,80.13
2023-01-20T08:00:06.492Z,70.87
2023-01-20T08:02:51.750Z,71.70
2023-01-20T08:05:36.529Z,74.10
2023-01-20T08:08:23.102Z,73.93
2023-01-20T08:11:10.311Z,72.33
2023-01-20T08:13:55.659Z,72.20
2023-01-20T08:16:40.545Z,78.77
2023-01-20T08:19:29.036Z,77.90
2023-01-20T08:22:14.097Z,78.53
2023-01-20T08:25:02.277Z,76.63
2023-01-20T08:27:48.540Z,71.03
2023-01-20T08:30:33.746Z,73.03
2023-01-20T08:33:19.275Z,69.27
2023-01-20T08:36:16.403Z,66.77
2023-01-20T08:39:03.544Z,70.13
2023-01-20T08:41:50.147Z,73.47
2023-01-20T08:44:35.444Z,71.27
2023-01-20T08:47:20.298Z,66.40
2023-01-20T08:50:07.084Z,63.87
2023-01-20T08:52:52.446Z,66.60
2023-01-20T08:55:37.759Z,63.67
2023-01-20T08:58:25.201Z,66.30
2023-01-20T09:01:23.102Z,61.90
2023-01-20T09:04:08.206Z,56.63
2023-01-20T09:06:53.142Z,56.47
2023-01-20T09:09:39.090Z,54.83
2023-01-20T09:12:24.386Z,56.83
2023-01-20T09:15:11.549Z,61.23
2023-01-20T09:17:56.664Z,58.03
2023-01-20T09:20:41.731Z,60.27
2023-01-20T09:23:26.770Z,61.17
2023-01-20T09:26:13.285Z,55.93
2023-01-20T09:28:59.747Z,55.43
2023-01-20T09:31:49.204Z,54.93
2023-01-20T09:34:34.648Z,53.33
2023-01-20T09:37:19.762Z,52.43
2023-01-20T09:40:05.621Z,51.37
2023-01-20T09:43:12.211Z,55.07
2023-01-20T09:46:20.247Z,52.20
2023-01-20T09:49:17.782Z,51.43
2023-01-20T09:52:15.506Z,53.83
2023-01-20T09:55:21.424Z,54.77
2023-01-20T09:58:27.970Z,49.07
2023-01-20T10:01:16.337Z,51.40
2023-01-20T10:04:23.194Z,48.17
2023-01-20T10:07:33.602Z,60.17
2023-01-20T10:10:35.812Z,62.90
2023-01-20T10:13:30.109Z,61.20
2023-01-20T10:16:23.508Z,56.43
2023-01-20T10:19:21.097Z,59.23
2023-01-20T10:22:12.367Z,57.63
2023-01-20T10:25:17.435Z,54.23
2023-01-20T10:28:14.095Z,51.90
2023-01-20T10:31:05.157Z,55.30
2023-01-20T10:33:53.918Z,52.50
2023-01-20T10:36:44.087Z,49.13
2023-01-20T10:39:51.504Z,50.03
2023-01-20T10:42:36.608Z,52.77
2023-01-20T10:45:29.679Z,49.33
2023-01-20T10:48:56.008Z,47.97
2023-01-20T10:51:46.243Z,52.07
2023-01-20T10:54:50.477Z,45.43
2023-01-20T10:57:36.280Z,46.70
2023-01-20T11:00:32.364Z,43.33
2023-01-20T11:03:23.090Z,44.20
2023-01-20T11:06:19.433Z,40.90
2023-01-20T11:09:29.437Z,44.27
2023-01-20T11:12:17.301Z,38.67
2023-01-20T11:15:14.298Z,36.40
2023-01-20T11:18:14.477Z,42.27
2023-01-20T11:21:05.784Z,35.13
2023-01-20T11:23:52.730Z,33.07
2023-01-20T11:26:38.330Z,34.80
2023-01-20T11:29:28.353Z,31.23
2023-01-20T11:32:32.412Z,32.47
2023-01-20T11:35:24.026Z,32.57
2023-01-20T11:38:23.973Z,25.53
2023-01-20T11:41:19.954Z,33.37
2023-01-20T11:44:06.501Z,30.87
2023-01-20T11:46:51.772Z,28.93
2023-01-20T11:49:37.246Z,30.43
2023-01-20T11:52:22.551Z,29.03
2023-01-20T11:55:18.016Z,25.47
2023-01-20T11:58:04.032Z,27.47
2023-01-20T12:00:51.480Z,28.83
2023-01-20T12:03:39.612Z,27.87
2023-01-20T12:06:28.591Z,28.27
2023-01-20T12:09:19.881Z,28.23
2023-01-20T12:12:15.963Z,24.03
2023-01-20T12:15:18.147Z,24.37
2023-01-20T12:18:23.203Z,25.80
2023-01-20T12:21:13.250Z,27.03
2023-01-20T12:24:42.068Z,37.97
2023-01-20T12:27:30.101Z,27.97
2023-01-20T12:30:54.086Z,26.13
2023-01-20T12:33:48.050Z,27.63
2023-01-20T12:37:11.461Z,27.10
2023-01-20T12:40:11.197Z,28.20
2023-01-20T12:43:10.559Z,31.30
2023-01-20T12:46:07.554Z,26.73
2023-01-20T12:49:05.149Z,25.43
2023-01-20T12:52:10.906Z,26.47
2023-01-20T12:55:22.032Z,28.80
2023-01-20T12:58:17.005Z,31.93
2023-01-20T13:01:24.125Z,27.33
2023-01-20T13:04:39.957Z,31.37
2023-01-20T13:07:36.404Z,30.13
2023-01-20T13:10:51.668Z,27.63
2023-01-20T13:13:48.039Z,30.17
2023-01-20T13:16:59.812Z,26.97
2023-01-20T13:19:45.672Z,21.23
2023-01-20T13:22:31.330Z,22.73
2023-01-20T13:25:17.164Z,25.67
2023-01-20T13:28:02.747Z,24.77
2023-01-20T13:30:49.904Z,23.53
2023-01-20T13:33:40.380Z,26.33
2023-01-20T13:36:25.843Z,27.57
2023-01-20T13:39:29.706Z,25.30
2023-01-20T13:42:29.903Z,26.50
2023-01-20T13:45:16.591Z,24.37
2023-01-20T13:48:22.250Z,26.40
2023-01-20T13:51:26.597Z,26.70
2023-01-20T13:54:23.878Z,24.20
2023-01-20T13:57:21.517Z,26.17
2023-01-20T14:00:12.210Z,24.60
2023-01-20T14:02:57.435Z,27.20
2023-01-20T14:05:42.845Z,25.77
2023-01-20T14:08:31.044Z,25.33
2023-01-20T14:11:22.017Z,26.87
2023-01-20T14:14:14.779Z,26.77
2023-01-20T14:17:01.916Z,42.63
2023-01-20T14:19:55.379Z,33.70
2023-01-20T14:22:40.810Z,30.90
2023-01-20T14:25:26.855Z,31.47
2023-01-20T14:28:19.233Z,33.77
2023-01-20T14:31:16.677Z,31.10
2023-01-20T14:34:31.219Z,33.30
2023-01-20T14:37:37.652Z,32.97
2023-01-20T14:40:29.917Z,28.73
2023-01-20T14:43:18.293Z,30.23
2023-01-20T14:46:03.959Z,28.60
2023-01-20T14:48:50.412Z,31.27
2023-01-20T14:51:35.588Z,30.60
2023-01-20T14:54:27.446Z,32.43
2023-01-20T14:57:29.387Z,34.30
2023-01-20T15:00:28.026Z,28.97
2023-01-20T15:03:17.984Z,34.17
2023-01-20T15:06:19.150Z,34.53
2023-01-20T15:09:24.616Z,30.73
2023-01-20T15:12:39.025Z,130.70
2023-01-20T15:15:27.609Z,39.03
2023-01-20T15:18:20.060Z,33.17
2023-01-20T15:21:17.200Z,34.70
2023-01-20T15:24:34.920Z,31.77
2023-01-20T15:27:32.024Z,34.33
2023-01-20T15:30:20.580Z,34.47
2023-01-20T15:33:08.998Z,33.37
2023-01-20T15:35:57.023Z,30.30
2023-01-20T15:38:42.281Z,33.73
2023-01-20T15:41:27.407Z,35.00
2023-01-20T15:44:12.300Z,34.50
2023-01-20T15:46:58.225Z,33.63
2023-01-20T15:49:43.341Z,34.30
2023-01-20T15:52:28.512Z,35.67
2023-01-20T15:55:15.930Z,33.00
2023-01-20T15:58:01.243Z,35.43
2023-01-20T16:00:46.152Z,35.50
2023-01-20T16:03:31.607Z,39.27
2023-01-20T16:06:18.692Z,37.27
2023-01-20T16:09:15.726Z,49.23
2023-01-20T16:12:00.522Z,48.43
2023-01-20T16:14:46.150Z,45.50
2023-01-20T16:17:32.982Z,47.80
2023-01-20T16:20:21.709Z,48.43
2023-01-20T16:23:07.209Z,43.20
2023-01-20T16:25:51.999Z,49.10
2023-01-20T16:28:37.094Z,48.57
2023-01-20T16:31:23.506Z,46.03
2023-01-20T16:34:08.470Z,47.40
2023-01-20T16:36:53.293Z,49.10
2023-01-20T16:39:38.143Z,55.77
2023-01-20T16:42:23.091Z,52.23
2023-01-20T16:45:28.764Z,53.80
2023-01-20T16:48:14.064Z,49.60
2023-01-20T16:50:59.644Z,51.70
2023-01-20T16:53:45.187Z,53.30
2023-01-20T16:56:31.817Z,55.73
2023-01-20T16:59:16.802Z,54.47
2023-01-20T17:02:01.663Z,56.60
2023-01-20T17:04:47.272Z,57.90
2023-01-20T17:07:32.563Z,55.73
2023-01-20T17:10:18.511Z,75.17
2023-01-20T17:13:03.853Z,70.37
2023-01-20T17:15:49.009Z,56.77
2023-01-20T17:18:34.371Z,49.10
2023-01-20T17:21:20.805Z,53.30
2023-01-20T17:24:06.297Z,52.23
2023-01-20T17:26:51.355Z,55.40
2023-01-20T17:29:36.655Z,48.43
2023-01-20T17:32:21.468Z,49.23
2023-01-20T17:35:06.942Z,52.53
2023-01-20T17:37:52.284Z,52.83
2023-01-20T17:40:37.094Z,51.53
2023-01-20T17:43:22.599Z,54.53
2023-01-20T17:46:14.064Z,55.50
2023-01-20T17:49:00.519Z,60.57
2023-01-20T17:51:45.563Z,65.37
2023-01-20T17:54:30.761Z,59.80
2023-01-20T17:57:15.728Z,48.63
2023-01-20T18:00:00.662Z,50.73
2023-01-20T18:02:45.973Z,53.93
2023-01-20T18:05:31.077Z,50.87
2023-01-20T18:08:16.458Z,52.60
2023-01-20T18:11:06.031Z,55.97
2023-01-20T18:13:53.782Z,86.37
2023-01-20T18:16:40.836Z,102.60
2023-01-20T18:19:26.269Z,96.67
2023-01-20T18:22:11.228Z,82.33
2023-01-20T18:24:56.682Z,74.10
2023-01-20T18:27:42.066Z,84.40
2023-01-20T18:30:27.606Z,75.43
2023-01-20T18:33:13.116Z,61.87
2023-01-20T18:35:58.292Z,62.33
2023-01-20T18:38:48.656Z,73.90
2023-01-20T18:41:37.412Z,82.83
2023-01-20T18:44:22.854Z,67.13
2023-01-20T18:47:08.009Z,63.50
2023-01-20T18:49:52.879Z,67.20
2023-01-20T18:52:38.333Z,70.00
2023-01-20T18:55:23.769Z,64.03
2023-01-20T18:58:08.508Z,65.83
2023-01-20T19:00:53.546Z,68.20
2023-01-20T19:03:39.095Z,70.03
2023-01-20T19:06:26.673Z,70.13
2023-01-20T19:09:13.082Z,72.73
2023-01-20T19:11:58.273Z,70.10
2023-01-20T19:14:43.459Z,68.67
2023-01-20T19:17:28.361Z,74.07
2023-01-20T19:20:13.267Z,80.97
2023-01-20T19:22:58.377Z,86.97
2023-01-20T19:25:43.076Z,85.90
2023-01-20T19:28:28.178Z,82.40
2023-01-20T19:31:19.250Z,74.10
2023-01-20T19:34:05.802Z,75.40
2023-01-20T19:36:50.767Z,76.00
2023-01-20T19:39:35.761Z,76.60
2023-01-20T19:42:21.257Z,67.07
2023-01-20T19:45:07.288Z,72.83
2023-01-20T19:47:52.487Z,68.20
2023-01-20T19:50:37.860Z,72.03
2023-01-20T19:53:23.269Z,74.47
2023-01-20T19:56:16.787Z,71.63
2023-01-20T19:59:01.855Z,72.43
2023-01-20T20:01:47.350Z,74.67
2023-01-20T20:04:32.690Z,78.27
2023-01-20T20:07:17.683Z,76.90
2023-01-20T20:10:03.868Z,77.47
2023-01-20T20:12:48.879Z,77.70
2023-01-20T20:15:33.636Z,75.63
2023-01-20T20:18:19.123Z,75.90
2023-01-20T20:21:04.390Z,76.10
2023-01-20T20:23:55.225Z,83.73
2023-01-20T20:26:41.842Z,83.83
2023-01-20T20:29:27.193Z,87.67
2023-01-20T20:32:12.239Z,82.43
2023-01-20T20:34:57.682Z,85.73
2023-01-20T20:37:42.541Z,80.83
2023-01-20T20:40:27.334Z,84.23
2023-01-20T20:43:12.675Z,86.83
2023-01-20T20:46:02.346Z,90.13
2023-01-20T20:48:47.353Z,99.37
2023-01-20T20:51:34.456Z,97.37
2023-01-20T20:54:19.540Z,95.63
2023-01-20T20:57:05.000Z,82.77
2023-01-20T20:59:58.885Z,88.20
2023-01-20T21:02:44.942Z,86.33
2023-01-20T21:05:30.089Z,87.37
2023-01-20T21:08:16.135Z,89.23
2023-01-20T21:11:02.954Z,87.60
2023-01-20T21:13:48.092Z,86.07
2023-01-20T21:16:34.211Z,75.47
2023-01-20T21:19:19.535Z,81.57
2023-01-20T21:22:04.616Z,82.90
2023-01-20T21:24:49.909Z,85.00
2023-01-20T21:27:35.367Z,85.80
2023-01-20T21:30:21.008Z,85.33
2023-01-20T21:33:06.037Z,81.57
2023-01-20T21:35:51.502Z,86.37
2023-01-20T21:38:36.945Z,87.93
2023-01-20T21:41:22.210Z,74.10
2023-01-20T21:44:11.914Z,74.43
2023-01-20T21:47:02.055Z,79.47
2023-01-20T21:49:47.126Z,79.47
2023-01-20T21:52:32.692Z,79.50
2023-01-20T21:55:19.399Z,80.43
2023-01-20T21:58:04.409Z,88.43
2023-01-20T22:00:54.599Z,86.07
2023-01-20T22:03:40.089Z,86.87
2023-01-20T22:06:25.433Z,80.03
2023-01-20T22:09:10.684Z,78.77
2023-01-20T22:11:55.787Z,82.53
2023-01-20T22:14:41.032Z,82.97
2023-01-20T22:17:26.447Z,75.53
2023-01-20T22:20:12.091Z,72.10
2023-01-20T22:22:57.480Z,70.07
2023-01-20T22:25:42.798Z,72.97
2023-01-20T22:28:32.123Z,74.63
2023-01-20T22:31:19.290Z,72.53
2023-01-20T22:34:04.378Z,106.27
2023-01-20T22:36:49.504Z,70.53
2023-01-20T22:39:34.967Z,67.57
2023-01-20T22:42:19.925Z,73.83
2023-01-20T22:45:06.050Z,73.47
2023-01-20T22:47:55.084Z,67.57
2023-01-20T22:50:40.184Z,77.97
2023-01-20T22:53:25.596Z,75.60
2023-01-20T22:56:12.918Z,76.07
2023-01-20T22:58:59.260Z,81.10
2023-01-20T23:01:44.721Z,78.23
2023-01-20T23:04:29.627Z,74.33
2023-01-20T23:07:15.047Z,73.83
2023-01-20T23:09:59.986Z,74.77
2023-01-20T23:12:45.424Z,84.57
2023-01-20T23:15:30.746Z,74.33
2023-01-20T23:18:16.152Z,67.83
2023-01-20T23:21:01.381Z,68.27
2023-01-20T23:23:47.175Z,70.87
2023-01-20T23:26:32.570Z,69.67
2023-01-20T23:29:17.784Z,77.80
2023-01-20T23:32:03.917Z,75.57
2023-01-20T23:34:49.130Z,72.43
2023-01-20T23:37:34.351Z,68.83
2023-01-20T23:40:19.436Z,69.00
2023-01-20T23:43:04.725Z,74.87
2023-01-20T23:45:50.056Z,70.50
2023-01-20T23:48:36.169Z,70.13
2023-01-20T23:51:21.199Z,71.60
2023-01-20T23:54:06.266Z,72.33
2023-01-20T23:56:51.074Z,71.80
2023-01-20T23:59:35.933Z,70.80
